createdAt,value
2023-03-01T00:01:41.281Z,13.75
2023-03-01T00:04:08.615Z,14.20
2023-03-01T00:06:36.238Z,11.52
2023-03-01T00:09:04.059Z,13.27
2023-03-01T00:11:33.063Z,14.13
2023-03-01T00:14:07.735Z,15.63
2023-03-01T00:16:39.873Z,16.10
2023-03-01T00:19:09.813Z,15.10
2023-03-01T00:24:06.241Z,14.25
2023-03-01T00:26:33.798Z,13.98
2023-03-01T00:29:01.636Z,15.35
2023-03-01T00:31:31.034Z,19.25
2023-03-01T00:34:00.546Z,20.80
2023-03-01T00:36:31.412Z,17.05
2023-03-01T00:38:59.034Z,18.17
2023-03-01T00:41:30.162Z,16.17
2023-03-01T00:43:57.665Z,14.57
2023-03-01T00:46:28.488Z,17.33
2023-03-01T00:48:56.246Z,18.45
2023-03-01T00:51:26.805Z,16.17
2023-03-01T00:53:55.828Z,14.73
2023-03-01T00:56:23.732Z,15.25
2023-03-01T00:58:51.834Z,18.63
2023-03-01T01:01:23.713Z,14.43
2023-03-01T01:03:54.174Z,14.75
2023-03-01T01:06:29.147Z,14.48
2023-03-01T01:08:57.073Z,16.08
2023-03-01T01:11:25.854Z,15.45
2023-03-01T01:13:54.332Z,17.17
2023-03-01T01:16:23.305Z,18.52
2023-03-01T01:18:50.760Z,15.33
2023-03-01T01:21:20.368Z,17.80
2023-03-01T01:23:48.592Z,15.43
2023-03-01T01:26:23.357Z,18.83
2023-03-01T01:28:51.303Z,19.00
2023-03-01T01:31:19.653Z,15.77
2023-03-01T01:33:47.334Z,18.42
2023-03-01T01:36:14.732Z,17.90
2023-03-01T01:38:43.548Z,16.98
2023-03-01T01:41:12.500Z,19.10
2023-03-01T01:43:45.907Z,16.17
2023-03-01T01:46:33.487Z,16.33
2023-03-01T01:49:21.247Z,22.17
2023-03-01T01:51:49.689Z,16.75
2023-03-01T01:54:21.728Z,19.25
2023-03-01T01:56:56.671Z,16.45
2023-03-01T01:59:25.807Z,17.33
2023-03-01T02:01:53.782Z,17.50
2023-03-01T02:04:21.602Z,16.05
2023-03-01T02:07:11.998Z,15.90
2023-03-01T02:09:39.788Z,20.35
2023-03-01T02:12:07.969Z,15.63
2023-03-01T02:14:35.391Z,15.63
2023-03-01T02:17:02.888Z,16.25
2023-03-01T02:20:07.989Z,16.25
2023-03-01T02:22:39.321Z,16.17
2023-03-01T02:25:19.185Z,19.63
2023-03-01T02:30:17.302Z,16.77
2023-03-01T02:32:45.185Z,16.08
2023-03-01T02:35:14.791Z,22.85
2023-03-01T02:37:43.766Z,14.70
2023-03-01T02:40:14.934Z,16.03
2023-03-01T02:42:49.251Z,18.13
2023-03-01T02:45:17.100Z,19.38
2023-03-01T02:47:44.513Z,16.63
2023-03-01T02:50:44.532Z,20.45
2023-03-01T02:55:48.630Z,19.10
2023-03-01T02:58:16.167Z,17.80
2023-03-01T03:00:48.061Z,19.83
2023-03-01T03:03:18.412Z,19.35
2023-03-01T03:05:45.685Z,17.70
2023-03-01T03:08:13.106Z,16.95
2023-03-01T03:10:42.051Z,19.00
2023-03-01T03:13:12.169Z,16.75
2023-03-01T03:15:40.859Z,21.75
2023-03-01T03:18:15.834Z,17.40
2023-03-01T03:20:44.849Z,20.13
2023-03-01T03:23:12.526Z,16.47
2023-03-01T03:25:40.091Z,17.77
2023-03-01T03:28:10.957Z,15.80
2023-03-01T03:30:40.866Z,16.55
2023-03-01T03:33:13.168Z,18.10
2023-03-01T03:35:46.460Z,16.75
2023-03-01T03:38:17.888Z,16.40
2023-03-01T03:41:05.803Z,20.70
2023-03-01T03:43:35.243Z,20.63
2023-03-01T03:46:06.760Z,16.95
2023-03-01T03:48:36.332Z,19.15
2023-03-01T03:51:06.319Z,19.58
2023-03-01T03:53:33.921Z,19.42
2023-03-01T03:56:01.408Z,18.08
2023-03-01T03:58:28.752Z,22.65
2023-03-01T04:00:58.157Z,18.70
2023-03-01T04:03:26.852Z,16.20
2023-03-01T04:05:54.419Z,21.23
2023-03-01T04:08:23.318Z,18.85
2023-03-01T04:10:52.541Z,21.07
2023-03-01T04:13:23.012Z,19.95
2023-03-01T04:15:51.733Z,19.98
2023-03-01T04:18:20.675Z,18.17
2023-03-01T04:20:48.358Z,19.77
2023-03-01T04:23:20.080Z,15.40
2023-03-01T04:25:55.904Z,19.75
2023-03-01T04:28:28.026Z,18.98
2023-03-01T04:30:57.177Z,17.67
2023-03-01T04:33:25.495Z,16.53
2023-03-01T04:35:53.085Z,18.00
2023-03-01T04:38:21.017Z,19.55
2023-03-01T04:40:48.711Z,17.02
2023-03-01T04:43:16.476Z,18.90
2023-03-01T04:45:43.851Z,18.48
2023-03-01T04:48:11.518Z,19.33
2023-03-01T04:50:39.976Z,20.58
2023-03-01T04:53:07.345Z,18.60
2023-03-01T04:55:34.849Z,17.95
2023-03-01T04:58:02.124Z,18.33
2023-03-01T05:00:32.304Z,17.00
2023-03-01T05:03:03.077Z,21.23
2023-03-01T05:05:34.029Z,21.40
2023-03-01T05:08:04.518Z,17.73
2023-03-01T05:10:33.788Z,20.52
2023-03-01T05:13:01.109Z,19.70
2023-03-01T05:15:32.119Z,17.73
2023-03-01T05:18:00.726Z,18.23
2023-03-01T05:20:29.822Z,20.33
2023-03-01T05:23:00.680Z,17.38
2023-03-01T05:25:28.227Z,24.40
2023-03-01T05:27:55.543Z,18.70
2023-03-01T05:30:23.569Z,19.83
2023-03-01T05:32:56.924Z,17.90
2023-03-01T05:35:24.619Z,22.73
2023-03-01T05:37:52.531Z,20.92
2023-03-01T05:40:21.869Z,19.15
2023-03-01T05:42:57.257Z,19.10
2023-03-01T05:45:26.994Z,23.40
2023-03-01T05:47:56.109Z,19.75
2023-03-01T05:50:29.270Z,19.60
2023-03-01T05:53:09.603Z,20.77
2023-03-01T05:55:37.308Z,19.65
2023-03-01T05:58:07.991Z,20.77
2023-03-01T06:00:35.788Z,21.88
2023-03-01T06:03:03.401Z,19.90
2023-03-01T06:05:31.181Z,22.05
2023-03-01T06:08:02.629Z,28.70
2023-03-01T06:10:30.367Z,25.17
2023-03-01T06:12:59.143Z,20.23
2023-03-01T06:15:27.251Z,24.83
2023-03-01T06:18:00.042Z,26.98
2023-03-01T06:20:29.772Z,23.85
2023-03-01T06:22:57.665Z,23.52
2023-03-01T06:25:26.757Z,25.35
2023-03-01T06:27:54.221Z,24.95
2023-03-01T06:30:23.458Z,23.80
2023-03-01T06:32:50.997Z,23.00
2023-03-01T06:35:19.627Z,26.73
2023-03-01T06:37:48.428Z,24.08
2023-03-01T06:40:16.675Z,33.45
2023-03-01T06:42:48.281Z,30.88
2023-03-01T06:45:15.861Z,26.27
2023-03-01T06:47:43.342Z,29.02
2023-03-01T06:50:11.686Z,32.60
2023-03-01T06:52:39.473Z,29.45
2023-03-01T06:55:07.634Z,28.48
2023-03-01T06:57:35.006Z,32.15
2023-03-01T07:00:03.578Z,33.08
2023-03-01T07:02:30.931Z,27.00
2023-03-01T07:04:58.579Z,29.85
2023-03-01T07:07:26.743Z,31.20
2023-03-01T07:09:54.498Z,32.08
2023-03-01T07:12:21.821Z,31.58
2023-03-01T07:14:49.215Z,30.17
2023-03-01T07:17:16.606Z,27.98
2023-03-01T07:19:44.887Z,30.27
2023-03-01T07:22:12.412Z,25.52
2023-03-01T07:24:39.694Z,33.92
2023-03-01T07:27:07.527Z,28.90
2023-03-01T07:29:37.435Z,39.22
2023-03-01T07:34:32.833Z,29.83
2023-03-01T07:37:00.234Z,28.70
2023-03-01T07:39:27.667Z,35.35
2023-03-01T07:41:55.077Z,35.40
2023-03-01T07:44:23.558Z,31.60
2023-03-01T07:46:51.149Z,34.03
2023-03-01T07:49:18.804Z,40.67
2023-03-01T07:51:46.318Z,37.72
2023-03-01T07:54:13.536Z,28.13
2023-03-01T07:56:41.801Z,30.50
2023-03-01T07:59:09.226Z,40.05
2023-03-01T08:01:36.587Z,29.83
2023-03-01T08:04:05.758Z,29.02
2023-03-01T08:06:35.136Z,36.38
2023-03-01T08:09:03.343Z,33.83
2023-03-01T08:11:31.281Z,29.60
2023-03-01T08:13:58.842Z,30.67
2023-03-01T08:16:27.306Z,30.23
2023-03-01T08:18:57.656Z,29.35
2023-03-01T08:21:25.001Z,31.95
2023-03-01T08:23:52.649Z,26.60
2023-03-01T08:26:21.746Z,35.30
2023-03-01T08:28:50.714Z,35.75
2023-03-01T08:31:28.530Z,27.70
2023-03-01T08:33:58.515Z,34.08
2023-03-01T08:36:28.535Z,30.02
2023-03-01T08:38:56.505Z,30.63
2023-03-01T08:41:24.461Z,29.23
2023-03-01T08:43:52.126Z,29.50
2023-03-01T08:46:19.617Z,28.40
2023-03-01T08:48:46.933Z,34.00
2023-03-01T08:51:17.241Z,27.10
2023-03-01T08:53:45.129Z,35.67
2023-03-01T08:56:14.049Z,30.23
2023-03-01T08:58:41.412Z,33.35
2023-03-01T09:01:10.155Z,31.17
2023-03-01T09:03:37.990Z,34.33
2023-03-01T09:06:06.931Z,33.85
2023-03-01T09:08:39.356Z,42.77
2023-03-01T09:11:09.276Z,30.15
2023-03-01T09:16:06.169Z,31.23
2023-03-01T09:18:34.331Z,38.10
2023-03-01T09:21:09.526Z,32.50
2023-03-01T09:23:41.359Z,25.38
2023-03-01T09:26:10.850Z,26.40
2023-03-01T09:28:38.878Z,34.67
2023-03-01T09:31:06.620Z,36.85
2023-03-01T09:33:34.309Z,35.33
2023-03-01T09:36:03.869Z,37.08
2023-03-01T09:38:31.522Z,32.03
2023-03-01T09:40:58.977Z,31.02
2023-03-01T09:43:35.840Z,30.95
2023-03-01T09:46:09.319Z,41.58
2023-03-01T09:48:44.828Z,31.48
2023-03-01T09:51:19.529Z,38.33
2023-03-01T09:53:46.859Z,40.92
2023-03-01T09:56:19.878Z,29.70
2023-03-01T09:58:55.474Z,29.33
2023-03-01T10:02:04.877Z,33.72
2023-03-01T10:04:43.599Z,30.70
2023-03-01T10:07:19.196Z,34.13
2023-03-01T10:09:47.156Z,34.00
2023-03-01T10:12:46.738Z,31.75
2023-03-01T10:15:26.747Z,27.33
2023-03-01T10:17:58.064Z,26.65
2023-03-01T10:20:26.315Z,28.95
2023-03-01T10:22:56.125Z,30.80
2023-03-01T10:25:23.446Z,27.98
2023-03-01T10:27:54.597Z,34.78
2023-03-01T10:30:27.575Z,29.92
2023-03-01T10:32:55.328Z,31.42
2023-03-01T10:35:28.295Z,33.85
2023-03-01T10:38:08.016Z,42.78
2023-03-01T10:40:36.837Z,34.10
2023-03-01T10:43:06.343Z,30.52
2023-03-01T10:45:39.292Z,35.22
2023-03-01T10:48:09.438Z,28.33
2023-03-01T10:50:40.346Z,32.95
2023-03-01T10:53:30.206Z,33.13
2023-03-01T10:56:07.103Z,32.15
2023-03-01T10:58:37.295Z,39.00
2023-03-01T11:01:16.942Z,55.92
2023-03-01T11:03:44.366Z,30.25
2023-03-01T11:06:12.066Z,30.02
2023-03-01T11:08:40.586Z,34.60
2023-03-01T11:11:34.377Z,32.95
2023-03-01T11:14:25.043Z,36.40
2023-03-01T11:17:27.048Z,35.42
2023-03-01T11:20:15.637Z,31.10
2023-03-01T11:22:55.545Z,33.17
2023-03-01T11:25:37.162Z,29.48
2023-03-01T11:28:08.286Z,37.42
2023-03-01T11:31:08.631Z,41.83
2023-03-01T11:33:36.871Z,41.17
2023-03-01T11:36:09.663Z,33.17
2023-03-01T11:38:37.848Z,28.33
2023-03-01T11:41:17.193Z,38.75
2023-03-01T11:44:00.332Z,34.75
2023-03-01T11:46:34.341Z,35.53
2023-03-01T11:49:26.002Z,28.92
2023-03-01T11:52:16.451Z,38.05
2023-03-01T11:55:17.993Z,34.70
2023-03-01T11:58:04.026Z,34.47
2023-03-01T12:00:45.661Z,27.02
2023-03-01T12:03:31.646Z,30.88
2023-03-01T12:06:17.236Z,32.00
2023-03-01T12:09:07.891Z,24.95
2023-03-01T12:12:13.136Z,27.73
2023-03-01T12:14:50.461Z,27.00
2023-03-01T12:17:26.587Z,29.05
2023-03-01T12:20:22.132Z,28.08
2023-03-01T12:23:20.377Z,31.23
2023-03-01T12:26:07.934Z,32.65
2023-03-01T12:28:42.038Z,28.95
2023-03-01T12:31:44.846Z,26.35
2023-03-01T12:34:30.448Z,35.17
2023-03-01T12:37:19.887Z,29.73
2023-03-01T12:39:56.464Z,33.67
2023-03-01T12:42:37.306Z,30.95
2023-03-01T12:45:43.287Z,29.08
2023-03-01T12:48:39.736Z,30.15
2023-03-01T12:51:13.322Z,32.85
2023-03-01T12:53:43.441Z,32.75
2023-03-01T12:56:13.739Z,30.15
2023-03-01T12:59:06.213Z,25.38
2023-03-01T13:01:52.245Z,31.35
2023-03-01T13:04:50.234Z,28.88
2023-03-01T13:07:30.071Z,29.75
2023-03-01T13:10:24.594Z,32.05
2023-03-01T13:13:14.367Z,28.73
2023-03-01T13:15:42.294Z,30.75
2023-03-01T13:18:12.648Z,33.58
2023-03-01T13:20:42.909Z,28.23
2023-03-01T13:26:02.306Z,31.20
2023-03-01T13:28:45.098Z,36.80
2023-03-01T13:31:32.507Z,30.35
2023-03-01T13:34:01.687Z,32.05
2023-03-01T13:36:29.724Z,33.40
2023-03-01T13:39:29.613Z,44.60
2023-03-01T13:41:58.482Z,29.00
2023-03-01T13:44:33.722Z,27.23
2023-03-01T13:47:08.577Z,31.42
2023-03-01T13:50:00.639Z,31.15
2023-03-01T13:52:30.580Z,31.30
2023-03-01T13:54:58.179Z,29.27
2023-03-01T13:57:28.900Z,32.63
2023-03-01T13:59:56.307Z,30.95
2023-03-01T14:02:23.798Z,25.45
2023-03-01T14:05:01.468Z,31.02
2023-03-01T14:07:32.078Z,35.90
2023-03-01T14:10:01.521Z,35.17
2023-03-01T14:13:11.400Z,30.20
2023-03-01T14:15:57.865Z,32.97
2023-03-01T14:18:53.223Z,34.90
2023-03-01T14:21:20.644Z,27.52
2023-03-01T14:23:47.956Z,26.33
2023-03-01T14:26:22.231Z,37.38
2023-03-01T14:28:50.612Z,33.17
2023-03-01T14:31:40.955Z,31.70
2023-03-01T14:34:23.890Z,29.92
2023-03-01T14:36:51.329Z,32.40
2023-03-01T14:39:22.159Z,34.72
2023-03-01T14:41:49.733Z,32.83
2023-03-01T14:44:23.968Z,29.73
2023-03-01T14:46:56.294Z,27.20
2023-03-01T14:49:27.293Z,34.88
2023-03-01T14:52:06.402Z,32.50
2023-03-01T14:54:46.096Z,31.67
2023-03-01T14:57:27.426Z,37.63
2023-03-01T14:59:57.044Z,26.27
2023-03-01T15:02:29.304Z,36.17
2023-03-01T15:05:01.974Z,29.73
2023-03-01T15:07:32.758Z,33.63
2023-03-01T15:10:00.978Z,30.30
2023-03-01T15:12:28.311Z,34.97
2023-03-01T15:15:03.861Z,32.75
2023-03-01T15:17:34.190Z,36.42
2023-03-01T15:20:04.685Z,31.52
2023-03-01T15:22:32.244Z,35.13
2023-03-01T15:25:00.049Z,30.23
2023-03-01T15:27:28.407Z,35.03
2023-03-01T15:30:00.800Z,32.38
2023-03-01T15:32:34.700Z,34.00
2023-03-01T15:35:57.495Z,28.85
2023-03-01T15:38:59.001Z,33.13
2023-03-01T15:41:48.029Z,30.60
2023-03-01T15:44:29.931Z,30.33
2023-03-01T15:47:03.145Z,29.60
2023-03-01T15:49:49.609Z,29.15
2023-03-01T15:52:40.215Z,27.60
2023-03-01T15:55:35.544Z,27.67
2023-03-01T15:58:18.601Z,29.77
2023-03-01T16:01:00.317Z,27.67
2023-03-01T16:03:29.331Z,27.55
2023-03-01T16:05:56.757Z,29.73
2023-03-01T16:08:24.448Z,33.20
2023-03-01T16:10:52.577Z,27.08
2023-03-01T16:13:20.374Z,24.00
2023-03-01T16:15:47.901Z,28.77
2023-03-01T16:18:15.484Z,29.30
2023-03-01T16:20:44.000Z,24.90
2023-03-01T16:23:12.721Z,25.17
2023-03-01T16:25:40.202Z,26.98
2023-03-01T16:28:11.044Z,29.15
2023-03-01T16:30:40.653Z,26.30
2023-03-01T16:33:28.842Z,26.30
2023-03-01T16:35:56.909Z,29.58
2023-03-01T16:38:24.621Z,23.05
2023-03-01T16:40:53.212Z,31.02
2023-03-01T16:43:20.716Z,25.25
2023-03-01T16:45:48.118Z,23.13
2023-03-01T16:48:15.748Z,22.63
2023-03-01T16:50:43.030Z,27.60
2023-03-01T16:53:10.903Z,25.02
2023-03-01T16:55:39.053Z,25.30
2023-03-01T16:58:06.831Z,26.55
2023-03-01T17:00:34.161Z,25.52
2023-03-01T17:03:01.507Z,22.30
2023-03-01T17:05:28.834Z,24.95
2023-03-01T17:07:59.118Z,21.55
2023-03-01T17:10:27.038Z,25.10
2023-03-01T17:12:54.920Z,26.65
2023-03-01T17:15:22.333Z,26.60
2023-03-01T17:17:52.040Z,23.60
2023-03-01T17:20:20.141Z,23.17
2023-03-01T17:22:47.603Z,25.20
2023-03-01T17:25:15.963Z,23.67
2023-03-01T17:27:43.434Z,24.98
2023-03-01T17:30:12.705Z,27.77
2023-03-01T17:32:40.344Z,31.90
2023-03-01T17:35:08.836Z,25.23
2023-03-01T17:37:37.252Z,25.35
2023-03-01T17:40:05.554Z,26.60
2023-03-01T17:42:33.492Z,27.08
2023-03-01T17:45:02.850Z,24.55
2023-03-01T17:47:30.223Z,25.75
2023-03-01T17:49:57.498Z,29.33
2023-03-01T17:52:24.851Z,26.05
2023-03-01T17:54:52.106Z,25.05
2023-03-01T17:57:19.613Z,29.77
2023-03-01T17:59:47.030Z,27.67
2023-03-01T18:02:14.458Z,25.88
2023-03-01T18:04:41.720Z,24.83
2023-03-01T18:07:09.125Z,28.58
2023-03-01T18:09:36.552Z,25.33
2023-03-01T18:12:04.031Z,30.77
2023-03-01T18:14:33.910Z,28.13
2023-03-01T18:17:06.624Z,27.52
2023-03-01T18:19:34.312Z,27.25
2023-03-01T18:22:01.498Z,27.98
2023-03-01T18:24:28.908Z,26.80
2023-03-01T18:26:56.241Z,31.15
2023-03-01T18:29:23.579Z,27.98
2023-03-01T18:31:51.326Z,27.13
2023-03-01T18:34:19.103Z,29.10
2023-03-01T18:37:00.478Z,33.60
2023-03-01T18:39:33.613Z,35.17
2023-03-01T18:42:00.928Z,30.85
2023-03-01T18:44:28.275Z,28.55
2023-03-01T18:46:58.355Z,33.00
2023-03-01T18:51:53.416Z,31.80
2023-03-01T18:54:20.824Z,32.58
2023-03-01T18:56:48.977Z,36.40
2023-03-01T18:59:16.437Z,33.10
2023-03-01T19:01:43.825Z,30.70
2023-03-01T19:04:11.866Z,28.65
2023-03-01T19:06:39.459Z,33.13
2023-03-01T19:09:08.016Z,29.25
2023-03-01T19:11:35.783Z,31.35
2023-03-01T19:14:04.148Z,29.88
2023-03-01T19:16:33.385Z,26.90
2023-03-01T19:19:02.780Z,30.88
2023-03-01T19:21:32.141Z,36.38
2023-03-01T19:24:02.603Z,24.98
2023-03-01T19:26:31.444Z,29.00
2023-03-01T19:28:59.497Z,30.05
2023-03-01T19:31:28.959Z,29.08
2023-03-01T19:34:10.044Z,31.15
2023-03-01T19:36:43.217Z,31.55
2023-03-01T19:39:13.543Z,29.63
2023-03-01T19:41:42.773Z,27.95
2023-03-01T19:44:10.210Z,32.15
2023-03-01T19:46:37.724Z,36.97
2023-03-01T19:49:05.888Z,33.00
2023-03-01T19:51:36.103Z,27.77
2023-03-01T19:56:32.083Z,28.33
2023-03-01T19:59:00.742Z,28.63
2023-03-01T20:01:29.758Z,39.00
2023-03-01T20:03:57.316Z,29.90
2023-03-01T20:06:25.786Z,33.78
2023-03-01T20:08:53.197Z,28.40
2023-03-01T20:11:21.258Z,30.92
2023-03-01T20:13:48.754Z,29.48
2023-03-01T20:16:18.897Z,30.10
2023-03-01T20:18:46.350Z,30.58
2023-03-01T20:21:23.649Z,30.27
2023-03-01T20:23:52.637Z,34.17
2023-03-01T20:26:25.549Z,30.40
2023-03-01T20:28:55.389Z,29.92
2023-03-01T20:31:29.750Z,34.40
2023-03-01T20:33:59.045Z,34.10
2023-03-01T20:36:27.800Z,29.13
2023-03-01T20:38:55.730Z,28.15
2023-03-01T20:41:26.441Z,33.67
2023-03-01T20:43:56.489Z,38.72
2023-03-01T20:46:26.632Z,39.83
2023-03-01T20:48:54.287Z,33.75
2023-03-01T20:51:21.687Z,34.10
2023-03-01T20:53:49.573Z,27.98
2023-03-01T20:56:18.177Z,34.10
2023-03-01T20:59:08.292Z,31.52
2023-03-01T21:01:36.908Z,31.05
2023-03-01T21:04:04.438Z,29.92
2023-03-01T21:06:32.448Z,29.15
2023-03-01T21:09:00.003Z,27.60
2023-03-01T21:11:27.601Z,35.92
2023-03-01T21:13:55.508Z,31.92
2023-03-01T21:16:23.296Z,29.30
2023-03-01T21:18:50.571Z,35.65
2023-03-01T21:21:20.981Z,30.08
2023-03-01T21:23:48.825Z,32.83
2023-03-01T21:26:19.492Z,37.05
2023-03-01T21:28:48.148Z,32.95
2023-03-01T21:31:17.004Z,32.70
2023-03-01T21:33:46.947Z,36.30
2023-03-01T21:36:14.974Z,29.98
2023-03-01T21:38:43.747Z,33.17
2023-03-01T21:41:14.159Z,37.40
2023-03-01T21:43:43.230Z,39.25
2023-03-01T21:46:14.134Z,33.77
2023-03-01T21:48:44.273Z,33.67
2023-03-01T21:51:15.108Z,36.75
2023-03-01T21:53:43.227Z,34.10
2023-03-01T21:56:22.353Z,34.00
2023-03-01T21:58:49.995Z,35.23
2023-03-01T22:01:20.178Z,37.22
2023-03-01T22:03:47.961Z,33.25
2023-03-01T22:06:19.947Z,37.15
2023-03-01T22:08:50.275Z,32.90
2023-03-01T22:11:18.657Z,31.90
2023-03-01T22:13:49.561Z,33.60
2023-03-01T22:16:19.220Z,32.40
2023-03-01T22:18:46.964Z,37.17
2023-03-01T22:21:14.560Z,38.00
2023-03-01T22:23:42.693Z,40.28
2023-03-01T22:26:25.041Z,42.60
2023-03-01T22:28:53.483Z,37.75
2023-03-01T22:31:21.577Z,41.95
2023-03-01T22:33:49.407Z,37.05
2023-03-01T22:36:16.879Z,49.78
2023-03-01T22:38:44.300Z,49.88
2023-03-01T22:41:11.562Z,39.50
2023-03-01T22:43:39.052Z,33.55
2023-03-01T22:46:12.002Z,46.17
2023-03-01T22:48:39.877Z,43.83
2023-03-01T22:51:07.585Z,40.20
2023-03-01T22:53:35.098Z,40.85
2023-03-01T22:56:24.102Z,43.53
2023-03-01T22:58:51.473Z,36.35
2023-03-01T23:01:21.242Z,36.88
2023-03-01T23:03:49.082Z,36.10
2023-03-01T23:06:18.137Z,37.53
2023-03-01T23:08:56.007Z,35.57
2023-03-01T23:11:26.030Z,34.70
2023-03-01T23:16:27.017Z,38.00
2023-03-01T23:18:56.057Z,34.85
2023-03-01T23:21:23.558Z,41.53
2023-03-01T23:23:51.171Z,35.72
2023-03-01T23:26:18.836Z,36.90
2023-03-01T23:28:47.476Z,41.42
2023-03-01T23:31:15.476Z,38.55
2023-03-01T23:33:45.165Z,37.47
2023-03-01T23:36:22.588Z,36.63
2023-03-01T23:38:53.639Z,40.33
2023-03-01T23:41:24.534Z,40.72
2023-03-01T23:43:54.218Z,36.58
2023-03-01T23:46:23.626Z,36.22
2023-03-01T23:48:51.369Z,40.70
2023-03-01T23:51:19.191Z,37.85
2023-03-01T23:53:56.109Z,35.55
2023-03-01T23:56:28.958Z,33.92
2023-03-01T23:58:58.693Z,42.88
